Řízení letového provozu České republiky  
Aktualizace dat:  09.12.2022 13:22:31 UTC English version
   METEO Zobrazení stránky:  09.12.2022 13:24:18 UTC  
vysvětlivky
METAR EDAC 091250Z 01005KT 9999 FEW010 SCT012 OVC036 03/01 Q1005=
METAR EDDB 091250Z AUTO 06004KT 020V100 0600 0500 R07L/1100D R07R/0650D FZFG OVC001 M02/M02 Q1007 TEMPO BKN002=
METAR EDDC 091250Z AUTO 05005KT 9999 BKN017 BKN041 02/00 Q1005 NOSIG=
METAR EDDE 091250Z AUTO VRB02KT 9999 BKN013 OVC023 01/M01 Q1004 TEMPO BKN015=
METAR EDDF 091250Z AUTO 02007KT 350V060 9999 FEW016 03/M00 Q1004 NOSIG=
METAR EDDM 091250Z AUTO 06005KT 9000 OVC007 00/M01 Q1000 NOSIG=
METAR EDDN 091250Z AUTO VRB02KT 9999 OVC042 03/M03 Q1002 NOSIG=
METAR EDDP 091250Z AUTO 08006KT 6000 OVC003 01/01 Q1006 BECMG OVC005=
METAR EDQM 091250Z 02005KT 9999 FEW009 SCT019 BKN033 M01/M02 Q1002=
METAR EPBY 091300Z 20004KT 9999 FEW005 SCT023 BKN027 01/M01 Q1008=
METAR EPGD 091300Z 25005KT 9999 OVC015 M03/M03 Q1009=
METAR EPKK 091300Z 05004KT 9999 BKN050 04/M00 Q1006=
METAR EPKT 091300Z 04003KT 350V060 9999 BKN041 02/M00 Q1006=
METAR EPLB 091300Z VRB01KT 9999 FEW035 05/M01 Q1008=
METAR EPLL 091300Z 05003KT 9999 FEW025 03/M00 Q1007=
METAR EPMO 091300Z VRB01KT 3300 -SN BR BKN005 01/01 Q1008=
METAR EPPO 091300Z 03004KT 7000 BKN006 01/M00 Q1008=
METAR EPRZ 091300Z VRB03KT 9999 OVC016 04/00 Q1008=
METAR EPWA 091300Z VRB02KT 8000 NSC 02/M01 Q1008 NOSIG=
METAR EPWR 091300Z 06007KT 9999 FEW018 04/M00 Q1007=
METAR LHBP 091300Z 08007KT 4800 -RA BR OVC004 04/04 Q1005 NOSIG=
METAR LHSM 091245Z AUTO 12005KT 080V150 6000 OVC002 06/06 Q1003 NOSIG=
METAR LKBC NIL
METAR LKCS 091300Z AUTO 33005KT 3300 BR OVC004/// M01/M01 Q1002=
METAR LKCV 091300Z 06007KT 8000 BKN025 OVC032 01/M00 Q1004 NOSIG RMK BLU BLU=
METAR LKKB 091300Z 04005KT 020V080 6000 OVC025 00/M02 Q1004 NOSIG RMK WHT WHT=
SPECI LKKU 091315Z 36005KT 3000 -RA BR FEW002 OVC014 03/02 Q1004=
METAR LKKV 091300Z 06005KT 030V120 9999 FEW017 M01/M05 Q1002=
METAR LKLN 091300Z AUTO 03003KT 320V080 9999 FEW077 OVC100 00/M02 Q1003=
METAR LKMT 091300Z 03007KT 4000 -RA BR SCT013 OVC032 02/01 Q1005 TEMPO 2800 -RA BR OVC019=
METAR LKNA 091300Z 08008KT 0900 R30/1900 -DZ FG BKN001 OVC005 01/00 Q1002 NOSIG RMK RED RED=
METAR LKPD 091300Z 07002KT 9000 OVC025 02/M00 Q1005 NOSIG RMK BLU BLU=
SPECI LKPJ 091302Z AUTO 05005KT 2300 -DZ BR OVC003/// 02/02 Q1004=
METAR LKPR 091300Z 05005KT 7000 FEW005 SCT015 M00/M02 Q1004 NOSIG=
METAR LKTB 091300Z 06011KT 3200 -DZ BR OVC008 02/01 Q1003 NOSIG=
METAR LKVO 091300Z 08003KT 040V130 8000 FEW006 01/M01 Q1005=
METAR LOWG 091250Z VRB01KT 7000 FEW005 SCT010 BKN025 02/01 Q1002 TEMPO 4000 RA BKN012=
METAR LOWI 091250Z VRB02KT 9999 FEW048 SCT100 03/M03 Q0998 NOSIG=
METAR LOWK 091250Z VRB01KT 7000 RASN SCT007 BKN025 BKN060 01/00 Q1003 TEMPO 3000 SN BR=
METAR LOWL 091250Z AUTO 08005KT 9000 -SN FEW014 SCT020 BKN044 01/M01 Q1001 TEMPO 4000 SN BKN014=
METAR LOWS 091250Z VRB01KT 9999 FEW009 SCT070 BKN090 M00/M02 Q1000 NOSIG=
METAR LOWW 091250Z 13011KT 7000 RA FEW010 SCT012 BKN020 04/03 Q1003 TEMPO -RA BKN005=
METAR LOXZ 091250Z VRB02KT 9999 -RASN FEW015 SCT025 OVC050 01/M03 Q1001 NOSIG=
METAR LZIB 091300Z 05007KT 3500 RA BR FEW003 BKN004 BKN011 04/04 Q1004 NOSIG=
METAR LZKZ 091300Z 34002KT 6000 -RA SCT006 OVC040 02/01 Q1008 NOSIG=
METAR LZPP 091300Z 10009KT 9999 -RA SCT013 OVC025 05/03 Q1003=
METAR LZTT 091300Z VRB02KT 9999 -SN FEW016 BKN030 00/M02 Q1005 NOSIG=
METAR LZZI 091300Z 06004KT 030V100 9999 -RA OVC014 03/01 Q1005=